KHRT

Details ICAO KHRT (HRT)
Name HURLBURT FLD
Region United States
Timezone America/Chicago (UTC-5.0)
Plans Departing 11
Arriving 13
Stats Elevation 38 ft / 12 m (AMSL)
Location 30.428918° -86.688801°
Runways 1
Magnetic Variation 3.204° W
Sunrise 2018-06-25 10:47:24 UTC / 2018-06-25 05:47:24 Local
Sunset 2018-06-26 00:53:50 UTC / 2018-06-25 19:53:50 Local
Advertisement - Login to hide

Runways

ID Width Length Bearing (true) Bearing (mag) Surface Threshold Offset Overrun Length
18 150 ft / 46 m 9,632 ft / 2,936 m 175.99° 179.19° Concrete 0 ft / 0 m 1,000 ft / 305 m
36 150 ft / 46 m 9,632 ft / 2,936 m 355.99° 359.19° Concrete 0 ft / 0 m 1,000 ft / 305 m

Approach Navaids

Runway Type Ident Frequency Range Bearing (true) Bearing (mag) Slope Elevation
36 Localiser IHRT 111.30 MHz 18 nm / 33 km 355.99° 359.19° - 35 ft / 11 m (AMSL)
36 Glidescope IHRT 111.30 MHz 10 nm / 19 km 355.99° 359.19° 2.50° 38 ft / 12 m (AMSL)

Map

Weather


0- 5 10 15 20 25 30 35+ Temperature / ° C

Clouds and Precipitation
Forecast for 2018-06-25 18:00 UTC. Updated 2 hours ago

Ground ~20,000 ft ~40,000 ft Winds

METAR

KHRT 251656Z 20007KT 10SM SCT035 32/24 A3010 RMK AO2A SLP194 T03230238 $

TAF

Not found

Frequencies

Ground 123.97 MHz GND
Approach 133.00 MHz EGLIN APP
Approach 132.10 MHz EGLIN APP
Tower 126.50 MHz TWR
Approach 125.10 MHz EGLIN APP
Departure 132.10 MHz EGLIN DEP
Warning: Do not use this data for real-world aviation or navigation. No guarantee of current accuracy is given.